Strang, Nebraska
Current Conditions -  °F | °C
As of 6:15 PM on Friday 28 Nov 2014 (Local Time) from KHJH Reporting Station
Clear Clear  
Wind Chill: 58°   Ceiling: Unl
Heat Index: 58°   Visibility: 10mi
Dew Point: 29°   Wind: 15mph
Humidity: 33%   Direction: 200°SSW
Pressure: 29.68"   Gusts: 18mph
Location:  40.42°N, 97.59°W
Report Text: KHJH 290015Z AUTO 20013G16KT 10SM CLR 15/M01 A2968 RMK AO2 T01451015
Loading
Personal Weather Stations






























Interactive Weather Map New forecast layout! Learn more

10-Day Weather Forecast

Advertisements
Track Severe Weather on mobile